Kugler, Minnesota
Current Conditions -  °F | °C
As of 9:55 PM on Saturday 24 Jan 2015 (Local Time) from KCQM Reporting Station
Overcast Overcast  
Wind Chill:   Ceiling: 2200
Heat Index: 12°   Visibility: 10mi
Dew Point:   Wind: 6mph
Humidity: 79%   Direction: 60°ENE
Pressure: 29.81"   Gusts: NA
Location:  47.7992°N, 92.3042°W
Report Text: KCQM 250355Z AUTO 06005KT 10SM OVC022 M11/M14 A2981 RMK AO2
Loading
Personal Weather Stations






























Interactive Weather Map New forecast layout! Learn more

10-Day Weather Forecast

Advertisements
Track Severe Weather on mobile